sensor_id;sensor_type;location;lat;lon;timestamp;temperature;humidity
17815;DHT22;9031;50.974;11.330;2022-07-29T00:00:35;18.70;99.90
17815;DHT22;9031;50.974;11.330;2022-07-29T00:03:02;18.70;99.90
17815;DHT22;9031;50.974;11.330;2022-07-29T00:05:27;18.70;99.90
17815;DHT22;9031;50.974;11.330;2022-07-29T00:07:53;18.80;99.90
17815;DHT22;9031;50.974;11.330;2022-07-29T00:10:19;18.80;99.90
17815;DHT22;9031;50.974;11.330;2022-07-29T00:12:44;18.70;99.90
17815;DHT22;9031;50.974;11.330;2022-07-29T00:15:10;18.70;99.90
17815;DHT22;9031;50.974;11.330;2022-07-29T00:17:35;18.70;99.90
17815;DHT22;9031;50.974;11.330;2022-07-29T00:20:01;18.60;99.90
17815;DHT22;9031;50.974;11.330;2022-07-29T00:22:26;18.70;99.90
17815;DHT22;9031;50.974;11.330;2022-07-29T00:24:52;18.60;99.90
17815;DHT22;9031;50.974;11.330;2022-07-29T00:27:18;18.60;99.90
17815;DHT22;9031;50.974;11.330;2022-07-29T00:29:43;18.50;99.90
17815;DHT22;9031;50.974;11.330;2022-07-29T00:32:08;18.50;99.90
17815;DHT22;9031;50.974;11.330;2022-07-29T00:34:34;18.60;99.90
17815;DHT22;9031;50.974;11.330;2022-07-29T00:37:18;18.60;99.90
17815;DHT22;9031;50.974;11.330;2022-07-29T00:39:43;18.50;99.90
17815;DHT22;9031;50.974;11.330;2022-07-29T00:42:09;18.50;99.90
17815;DHT22;9031;50.974;11.330;2022-07-29T00:44:38;18.40;99.90
17815;DHT22;9031;50.974;11.330;2022-07-29T00:47:04;18.50;99.90
17815;DHT22;9031;50.974;11.330;2022-07-29T00:49:30;18.40;99.90
17815;DHT22;9031;50.974;11.330;2022-07-29T00:51:56;18.40;99.90
17815;DHT22;9031;50.974;11.330;2022-07-29T00:54:22;18.40;99.90
17815;DHT22;9031;50.974;11.330;2022-07-29T00:56:47;18.30;99.90
17815;DHT22;9031;50.974;11.330;2022-07-29T00:59:13;18.30;99.90
17815;DHT22;9031;50.974;11.330;2022-07-29T01:01:38;18.20;99.90
17815;DHT22;9031;50.974;11.330;2022-07-29T01:04:05;18.10;99.90
17815;DHT22;9031;50.974;11.330;2022-07-29T01:06:32;18.10;99.90
17815;DHT22;9031;50.974;11.330;2022-07-29T01:08:58;18.10;99.90
17815;DHT22;9031;50.974;11.330;2022-07-29T01:11:23;18.10;99.90
17815;DHT22;9031;50.974;11.330;2022-07-29T01:13:49;18.00;99.90
17815;DHT22;9031;50.974;11.330;2022-07-29T01:16:22;18.00;99.90
17815;DHT22;9031;50.974;11.330;2022-07-29T01:18:54;17.90;99.90
17815;DHT22;9031;50.974;11.330;2022-07-29T01:21:50;17.90;99.90
17815;DHT22;9031;50.974;11.330;2022-07-29T01:27:04;17.70;99.90
17815;DHT22;9031;50.974;11.330;2022-07-29T01:29:39;17.70;99.90
17815;DHT22;9031;50.974;11.330;2022-07-29T01:32:19;17.70;99.90
17815;DHT22;9031;50.974;11.330;2022-07-29T01:35:02;17.70;99.90
17815;DHT22;9031;50.974;11.330;2022-07-29T01:40:22;17.80;99.90
17815;DHT22;9031;50.974;11.330;2022-07-29T01:42:52;17.70;99.90
17815;DHT22;9031;50.974;11.330;2022-07-29T01:45:51;17.70;99.90
17815;DHT22;9031;50.974;11.330;2022-07-29T01:48:21;17.70;99.90
17815;DHT22;9031;50.974;11.330;2022-07-29T01:50:50;17.60;99.90
17815;DHT22;9031;50.974;11.330;2022-07-29T01:53:31;17.50;99.90
17815;DHT22;9031;50.974;11.330;2022-07-29T01:56:00;17.40;99.90
17815;DHT22;9031;50.974;11.330;2022-07-29T01:58:28;17.30;99.90
17815;DHT22;9031;50.974;11.330;2022-07-29T02:00:57;17.30;99.90
17815;DHT22;9031;50.974;11.330;2022-07-29T02:03:24;17.30;99.90
17815;DHT22;9031;50.974;11.330;2022-07-29T02:05:52;17.20;99.90
17815;DHT22;9031;50.974;11.330;2022-07-29T02:08:19;17.20;99.90
17815;DHT22;9031;50.974;11.330;2022-07-29T02:10:46;17.20;99.90
17815;DHT22;9031;50.974;11.330;2022-07-29T02:13:13;17.20;99.90
17815;DHT22;9031;50.974;11.330;2022-07-29T02:15:41;17.10;99.90
17815;DHT22;9031;50.974;11.330;2022-07-29T02:18:11;17.10;99.90
17815;DHT22;9031;50.974;11.330;2022-07-29T02:20:39;17.10;99.90
17815;DHT22;9031;50.974;11.330;2022-07-29T02:23:06;17.10;99.90
17815;DHT22;9031;50.974;11.330;2022-07-29T02:25:32;17.00;99.90
17815;DHT22;9031;50.974;11.330;2022-07-29T02:27:59;17.10;99.90
17815;DHT22;9031;50.974;11.330;2022-07-29T02:30:26;16.90;99.90
17815;DHT22;9031;50.974;11.330;2022-07-29T02:32:53;16.90;99.90
17815;DHT22;9031;50.974;11.330;2022-07-29T02:35:21;16.80;99.90
17815;DHT22;9031;50.974;11.330;2022-07-29T02:37:47;16.90;99.90
17815;DHT22;9031;50.974;11.330;2022-07-29T02:40:34;16.90;99.90
17815;DHT22;9031;50.974;11.330;2022-07-29T02:43:02;16.90;99.90
17815;DHT22;9031;50.974;11.330;2022-07-29T02:45:30;16.80;99.90
17815;DHT22;9031;50.974;11.330;2022-07-29T02:47:58;16.70;99.90
17815;DHT22;9031;50.974;11.330;2022-07-29T02:50:34;16.60;99.90
17815;DHT22;9031;50.974;11.330;2022-07-29T02:53:08;16.60;99.90
17815;DHT22;9031;50.974;11.330;2022-07-29T02:55:45;16.60;99.90
17815;DHT22;9031;50.974;11.330;2022-07-29T02:58:30;16.60;99.90
17815;DHT22;9031;50.974;11.330;2022-07-29T03:00:59;16.60;99.90
17815;DHT22;9031;50.974;11.330;2022-07-29T03:03:29;16.70;99.90
17815;DHT22;9031;50.974;11.330;2022-07-29T03:05:57;16.60;99.90
17815;DHT22;9031;50.974;11.330;2022-07-29T03:08:23;16.60;99.90
17815;DHT22;9031;50.974;11.330;2022-07-29T03:10:49;16.60;99.90
17815;DHT22;9031;50.974;11.330;2022-07-29T03:13:15;16.60;99.90
17815;DHT22;9031;50.974;11.330;2022-07-29T03:15:44;16.50;99.90
17815;DHT22;9031;50.974;11.330;2022-07-29T03:18:10;16.30;99.90
17815;DHT22;9031;50.974;11.330;2022-07-29T03:20:37;16.30;99.90
17815;DHT22;9031;50.974;11.330;2022-07-29T03:23:03;16.20;99.90
17815;DHT22;9031;50.974;11.330;2022-07-29T03:25:30;16.20;99.90
17815;DHT22;9031;50.974;11.330;2022-07-29T03:27:55;16.20;99.90
17815;DHT22;9031;50.974;11.330;2022-07-29T03:30:22;16.10;99.90
17815;DHT22;9031;50.974;11.330;2022-07-29T03:32:49;16.20;99.90
17815;DHT22;9031;50.974;11.330;2022-07-29T03:35:15;16.10;99.90
17815;DHT22;9031;50.974;11.330;2022-07-29T03:37:45;16.20;99.90
17815;DHT22;9031;50.974;11.330;2022-07-29T03:40:18;16.10;99.90
17815;DHT22;9031;50.974;11.330;2022-07-29T03:42:45;16.10;99.90
17815;DHT22;9031;50.974;11.330;2022-07-29T03:45:15;16.10;99.90
17815;DHT22;9031;50.974;11.330;2022-07-29T03:47:48;16.10;99.90
17815;DHT22;9031;50.974;11.330;2022-07-29T03:50:16;16.10;99.90
17815;DHT22;9031;50.974;11.330;2022-07-29T03:52:42;16.00;99.90
17815;DHT22;9031;50.974;11.330;2022-07-29T03:55:09;16.10;99.90
17815;DHT22;9031;50.974;11.330;2022-07-29T03:57:35;16.10;99.90
17815;DHT22;9031;50.974;11.330;2022-07-29T04:00:03;16.00;99.90
17815;DHT22;9031;50.974;11.330;2022-07-29T04:02:29;16.00;99.90
17815;DHT22;9031;50.974;11.330;2022-07-29T04:04:56;15.90;99.90
17815;DHT22;9031;50.974;11.330;2022-07-29T04:07:21;16.00;99.90
17815;DHT22;9031;50.974;11.330;2022-07-29T04:09:46;16.00;99.90
17815;DHT22;9031;50.974;11.330;2022-07-29T04:12:12;16.00;99.90
17815;DHT22;9031;50.974;11.330;2022-07-29T04:14:37;16.00;99.90
17815;DHT22;9031;50.974;11.330;2022-07-29T04:17:04;16.10;99.90
17815;DHT22;9031;50.974;11.330;2022-07-29T04:19:31;16.10;99.90
17815;DHT22;9031;50.974;11.330;2022-07-29T04:21:57;16.10;99.90
17815;DHT22;9031;50.974;11.330;2022-07-29T04:24:23;16.10;99.90
17815;DHT22;9031;50.974;11.330;2022-07-29T04:26:48;16.00;99.90
17815;DHT22;9031;50.974;11.330;2022-07-29T04:29:14;16.10;99.90
17815;DHT22;9031;50.974;11.330;2022-07-29T04:31:41;16.00;99.90
17815;DHT22;9031;50.974;11.330;2022-07-29T04:34:07;16.00;99.90
17815;DHT22;9031;50.974;11.330;2022-07-29T04:36:32;16.00;99.90
17815;DHT22;9031;50.974;11.330;2022-07-29T04:38:58;16.00;99.90
17815;DHT22;9031;50.974;11.330;2022-07-29T04:41:24;16.10;99.90
17815;DHT22;9031;50.974;11.330;2022-07-29T04:43:49;16.30;99.90
17815;DHT22;9031;50.974;11.330;2022-07-29T04:46:15;16.30;99.90
17815;DHT22;9031;50.974;11.330;2022-07-29T04:48:41;16.40;99.90
17815;DHT22;9031;50.974;11.330;2022-07-29T04:51:06;16.40;99.90
17815;DHT22;9031;50.974;11.330;2022-07-29T04:53:32;16.50;99.90
17815;DHT22;9031;50.974;11.330;2022-07-29T04:55:57;16.30;99.90
17815;DHT22;9031;50.974;11.330;2022-07-29T04:58:23;16.20;99.90
17815;DHT22;9031;50.974;11.330;2022-07-29T05:00:49;16.30;99.90
17815;DHT22;9031;50.974;11.330;2022-07-29T05:03:15;16.40;99.90
17815;DHT22;9031;50.974;11.330;2022-07-29T05:05:41;16.40;99.90
17815;DHT22;9031;50.974;11.330;2022-07-29T05:08:07;16.40;99.90
17815;DHT22;9031;50.974;11.330;2022-07-29T05:10:33;16.40;99.90
17815;DHT22;9031;50.974;11.330;2022-07-29T05:13:02;16.40;99.90
17815;DHT22;9031;50.974;11.330;2022-07-29T05:15:28;16.30;99.90
17815;DHT22;9031;50.974;11.330;2022-07-29T05:17:53;16.20;99.90
17815;DHT22;9031;50.974;11.330;2022-07-29T05:20:19;16.00;99.90
17815;DHT22;9031;50.974;11.330;2022-07-29T05:22:51;16.00;99.90
17815;DHT22;9031;50.974;11.330;2022-07-29T05:25:16;16.10;99.90
17815;DHT22;9031;50.974;11.330;2022-07-29T05:27:42;16.20;99.90
17815;DHT22;9031;50.974;11.330;2022-07-29T05:30:08;16.30;99.90
17815;DHT22;9031;50.974;11.330;2022-07-29T05:32:33;16.50;99.90
17815;DHT22;9031;50.974;11.330;2022-07-29T05:34:59;16.70;99.90
17815;DHT22;9031;50.974;11.330;2022-07-29T05:37:24;16.80;99.90
17815;DHT22;9031;50.974;11.330;2022-07-29T05:39:50;16.90;99.90
17815;DHT22;9031;50.974;11.330;2022-07-29T05:42:15;17.00;99.90
17815;DHT22;9031;50.974;11.330;2022-07-29T05:44:41;17.00;99.90
17815;DHT22;9031;50.974;11.330;2022-07-29T05:47:06;16.90;99.90
17815;DHT22;9031;50.974;11.330;2022-07-29T05:49:32;16.90;99.90
17815;DHT22;9031;50.974;11.330;2022-07-29T05:51:58;17.00;99.90
17815;DHT22;9031;50.974;11.330;2022-07-29T05:54:24;16.90;99.90
17815;DHT22;9031;50.974;11.330;2022-07-29T05:56:49;16.80;99.90
17815;DHT22;9031;50.974;11.330;2022-07-29T05:59:15;16.80;99.90
17815;DHT22;9031;50.974;11.330;2022-07-29T06:01:40;16.90;99.90
17815;DHT22;9031;50.974;11.330;2022-07-29T06:04:06;17.00;99.90
17815;DHT22;9031;50.974;11.330;2022-07-29T06:06:33;17.10;99.90
17815;DHT22;9031;50.974;11.330;2022-07-29T06:08:59;17.20;99.90
17815;DHT22;9031;50.974;11.330;2022-07-29T06:11:25;17.20;99.90
17815;DHT22;9031;50.974;11.330;2022-07-29T06:13:50;17.20;99.90
17815;DHT22;9031;50.974;11.330;2022-07-29T06:16:16;17.40;99.90
17815;DHT22;9031;50.974;11.330;2022-07-29T06:18:41;17.60;99.90
17815;DHT22;9031;50.974;11.330;2022-07-29T06:21:08;17.90;99.90
17815;DHT22;9031;50.974;11.330;2022-07-29T06:23:35;18.20;99.90
17815;DHT22;9031;50.974;11.330;2022-07-29T06:26:01;18.50;99.90
17815;DHT22;9031;50.974;11.330;2022-07-29T06:28:27;18.60;99.90
17815;DHT22;9031;50.974;11.330;2022-07-29T06:30:53;18.60;99.90
17815;DHT22;9031;50.974;11.330;2022-07-29T06:33:19;18.60;99.90
17815;DHT22;9031;50.974;11.330;2022-07-29T06:35:45;18.80;99.90
17815;DHT22;9031;50.974;11.330;2022-07-29T06:38:13;19.00;99.90
17815;DHT22;9031;50.974;11.330;2022-07-29T06:40:42;19.20;99.90
17815;DHT22;9031;50.974;11.330;2022-07-29T06:45:59;19.20;99.90
17815;DHT22;9031;50.974;11.330;2022-07-29T06:48:26;19.20;99.90
17815;DHT22;9031;50.974;11.330;2022-07-29T06:50:52;19.20;99.90
17815;DHT22;9031;50.974;11.330;2022-07-29T06:53:17;19.30;99.90
17815;DHT22;9031;50.974;11.330;2022-07-29T06:55:43;19.50;99.90
17815;DHT22;9031;50.974;11.330;2022-07-29T06:58:08;19.50;99.90
17815;DHT22;9031;50.974;11.330;2022-07-29T07:00:34;19.60;99.90
17815;DHT22;9031;50.974;11.330;2022-07-29T07:03:00;19.60;99.90
17815;DHT22;9031;50.974;11.330;2022-07-29T07:05:26;19.80;99.90
17815;DHT22;9031;50.974;11.330;2022-07-29T07:07:51;20.00;99.90
17815;DHT22;9031;50.974;11.330;2022-07-29T07:10:17;20.20;99.90
17815;DHT22;9031;50.974;11.330;2022-07-29T07:12:42;20.50;99.90
17815;DHT22;9031;50.974;11.330;2022-07-29T07:15:08;20.60;99.90
17815;DHT22;9031;50.974;11.330;2022-07-29T07:17:34;20.50;99.90
17815;DHT22;9031;50.974;11.330;2022-07-29T07:19:59;20.40;99.90
17815;DHT22;9031;50.974;11.330;2022-07-29T07:22:25;20.30;99.90
17815;DHT22;9031;50.974;11.330;2022-07-29T07:24:50;20.60;99.90
17815;DHT22;9031;50.974;11.330;2022-07-29T07:27:16;20.40;99.90
17815;DHT22;9031;50.974;11.330;2022-07-29T07:29:41;20.60;99.90
17815;DHT22;9031;50.974;11.330;2022-07-29T07:32:07;21.10;99.90
17815;DHT22;9031;50.974;11.330;2022-07-29T07:34:33;21.30;99.90
17815;DHT22;9031;50.974;11.330;2022-07-29T07:36:59;21.50;99.90
17815;DHT22;9031;50.974;11.330;2022-07-29T07:39:24;21.60;99.90
17815;DHT22;9031;50.974;11.330;2022-07-29T07:41:51;21.60;99.90
17815;DHT22;9031;50.974;11.330;2022-07-29T07:44:17;21.90;99.90
17815;DHT22;9031;50.974;11.330;2022-07-29T07:46:42;22.10;99.90
17815;DHT22;9031;50.974;11.330;2022-07-29T07:49:10;22.00;99.90
17815;DHT22;9031;50.974;11.330;2022-07-29T07:51:35;22.00;99.90
17815;DHT22;9031;50.974;11.330;2022-07-29T07:54:01;22.00;99.90
17815;DHT22;9031;50.974;11.330;2022-07-29T07:56:27;22.10;99.90
17815;DHT22;9031;50.974;11.330;2022-07-29T07:58:52;22.40;99.90
17815;DHT22;9031;50.974;11.330;2022-07-29T08:01:18;22.60;99.90
17815;DHT22;9031;50.974;11.330;2022-07-29T08:03:45;22.90;99.90
17815;DHT22;9031;50.974;11.330;2022-07-29T08:06:11;23.20;99.90
17815;DHT22;9031;50.974;11.330;2022-07-29T08:08:36;23.20;99.90
17815;DHT22;9031;50.974;11.330;2022-07-29T08:11:02;23.20;99.90
17815;DHT22;9031;50.974;11.330;2022-07-29T08:13:29;23.20;99.90
17815;DHT22;9031;50.974;11.330;2022-07-29T08:15:56;23.40;99.90
17815;DHT22;9031;50.974;11.330;2022-07-29T08:18:36;23.50;99.90
17815;DHT22;9031;50.974;11.330;2022-07-29T08:21:03;23.80;99.90
17815;DHT22;9031;50.974;11.330;2022-07-29T08:23:28;23.90;99.90
17815;DHT22;9031;50.974;11.330;2022-07-29T08:26:04;23.90;99.90
17815;DHT22;9031;50.974;11.330;2022-07-29T08:28:30;24.30;99.90
17815;DHT22;9031;50.974;11.330;2022-07-29T08:30:56;24.40;99.90
17815;DHT22;9031;50.974;11.330;2022-07-29T08:33:21;24.50;99.90
17815;DHT22;9031;50.974;11.330;2022-07-29T08:35:47;24.30;99.90
17815;DHT22;9031;50.974;11.330;2022-07-29T08:38:13;24.60;99.90
17815;DHT22;9031;50.974;11.330;2022-07-29T08:40:39;24.90;99.90
17815;DHT22;9031;50.974;11.330;2022-07-29T08:43:08;25.20;99.90
17815;DHT22;9031;50.974;11.330;2022-07-29T08:45:48;25.50;99.90
17815;DHT22;9031;50.974;11.330;2022-07-29T08:48:20;25.70;99.90
17815;DHT22;9031;50.974;11.330;2022-07-29T08:50:47;25.70;99.90
17815;DHT22;9031;50.974;11.330;2022-07-29T08:53:15;25.60;99.90
17815;DHT22;9031;50.974;11.330;2022-07-29T08:55:43;25.50;99.90
17815;DHT22;9031;50.974;11.330;2022-07-29T08:58:09;25.60;99.90
17815;DHT22;9031;50.974;11.330;2022-07-29T09:00:37;25.60;99.90
17815;DHT22;9031;50.974;11.330;2022-07-29T09:03:04;25.80;99.90
17815;DHT22;9031;50.974;11.330;2022-07-29T09:05:31;25.60;99.90
17815;DHT22;9031;50.974;11.330;2022-07-29T09:07:57;25.30;99.90
17815;DHT22;9031;50.974;11.330;2022-07-29T09:10:24;25.50;99.90
17815;DHT22;9031;50.974;11.330;2022-07-29T09:12:50;25.90;99.90
17815;DHT22;9031;50.974;11.330;2022-07-29T09:15:15;26.30;99.90
17815;DHT22;9031;50.974;11.330;2022-07-29T09:17:48;26.60;99.90
17815;DHT22;9031;50.974;11.330;2022-07-29T09:20:16;26.80;99.90
17815;DHT22;9031;50.974;11.330;2022-07-29T09:22:42;26.80;99.90
17815;DHT22;9031;50.974;11.330;2022-07-29T09:25:10;26.90;99.90
17815;DHT22;9031;50.974;11.330;2022-07-29T09:27:37;26.90;99.90
17815;DHT22;9031;50.974;11.330;2022-07-29T09:30:08;27.00;99.90
17815;DHT22;9031;50.974;11.330;2022-07-29T09:32:54;27.10;99.90
17815;DHT22;9031;50.974;11.330;2022-07-29T09:35:22;27.80;99.90
17815;DHT22;9031;50.974;11.330;2022-07-29T09:37:48;28.20;99.90
17815;DHT22;9031;50.974;11.330;2022-07-29T09:40:26;28.50;99.90
17815;DHT22;9031;50.974;11.330;2022-07-29T09:42:52;28.60;99.90
17815;DHT22;9031;50.974;11.330;2022-07-29T09:45:33;28.20;99.80
17815;DHT22;9031;50.974;11.330;2022-07-29T09:47:59;27.30;99.90
17815;DHT22;9031;50.974;11.330;2022-07-29T09:50:54;27.10;99.90
17815;DHT22;9031;50.974;11.330;2022-07-29T09:53:34;27.50;99.90
17815;DHT22;9031;50.974;11.330;2022-07-29T09:56:00;28.50;99.60
17815;DHT22;9031;50.974;11.330;2022-07-29T09:58:26;29.30;99.60
17815;DHT22;9031;50.974;11.330;2022-07-29T10:00:52;30.00;97.90
17815;DHT22;9031;50.974;11.330;2022-07-29T10:03:19;30.60;97.10
17815;DHT22;9031;50.974;11.330;2022-07-29T10:05:45;31.10;96.50
17815;DHT22;9031;50.974;11.330;2022-07-29T10:08:12;31.20;95.90
17815;DHT22;9031;50.974;11.330;2022-07-29T10:10:42;31.10;95.20
17815;DHT22;9031;50.974;11.330;2022-07-29T10:13:14;30.90;95.20
17815;DHT22;9031;50.974;11.330;2022-07-29T10:15:44;30.40;96.10
17815;DHT22;9031;50.974;11.330;2022-07-29T10:18:12;30.60;95.30
17815;DHT22;9031;50.974;11.330;2022-07-29T10:20:38;30.20;95.10
17815;DHT22;9031;50.974;11.330;2022-07-29T10:23:04;30.00;96.00
17815;DHT22;9031;50.974;11.330;2022-07-29T10:25:31;30.40;95.60
17815;DHT22;9031;50.974;11.330;2022-07-29T10:27:57;30.60;95.10
17815;DHT22;9031;50.974;11.330;2022-07-29T10:30:24;30.60;94.50
17815;DHT22;9031;50.974;11.330;2022-07-29T10:38:55;31.70;92.60
17815;DHT22;9031;50.974;11.330;2022-07-29T10:43:56;31.70;92.90
17815;DHT22;9031;50.974;11.330;2022-07-29T10:46:22;31.70;92.30
17815;DHT22;9031;50.974;11.330;2022-07-29T10:51:55;31.80;92.20
17815;DHT22;9031;50.974;11.330;2022-07-29T10:57:24;30.10;92.40
17815;DHT22;9031;50.974;11.330;2022-07-29T11:05:07;30.40;92.60
17815;DHT22;9031;50.974;11.330;2022-07-29T11:07:34;30.90;92.40
17815;DHT22;9031;50.974;11.330;2022-07-29T11:15:06;32.70;90.30
17815;DHT22;9031;50.974;11.330;2022-07-29T11:23:00;30.80;91.70
17815;DHT22;9031;50.974;11.330;2022-07-29T11:25:26;30.40;91.90
17815;DHT22;9031;50.974;11.330;2022-07-29T11:27:53;30.10;92.70
17815;DHT22;9031;50.974;11.330;2022-07-29T11:30:19;29.60;93.20
17815;DHT22;9031;50.974;11.330;2022-07-29T11:32:45;29.30;93.40
17815;DHT22;9031;50.974;11.330;2022-07-29T11:35:23;29.20;93.50
17815;DHT22;9031;50.974;11.330;2022-07-29T11:38:26;29.00;93.90
17815;DHT22;9031;50.974;11.330;2022-07-29T11:43:46;29.20;93.50
17815;DHT22;9031;50.974;11.330;2022-07-29T11:46:12;29.40;93.80
17815;DHT22;9031;50.974;11.330;2022-07-29T11:48:42;29.30;93.50
17815;DHT22;9031;50.974;11.330;2022-07-29T11:51:11;29.00;93.90
17815;DHT22;9031;50.974;11.330;2022-07-29T11:53:38;28.90;94.70
17815;DHT22;9031;50.974;11.330;2022-07-29T11:56:08;29.00;93.80
17815;DHT22;9031;50.974;11.330;2022-07-29T11:58:34;29.20;93.60
17815;DHT22;9031;50.974;11.330;2022-07-29T12:01:00;29.20;93.90
17815;DHT22;9031;50.974;11.330;2022-07-29T12:03:27;29.30;93.90
17815;DHT22;9031;50.974;11.330;2022-07-29T12:05:54;29.20;93.70
17815;DHT22;9031;50.974;11.330;2022-07-29T12:08:21;28.80;93.90
17815;DHT22;9031;50.974;11.330;2022-07-29T12:10:48;28.70;94.00
17815;DHT22;9031;50.974;11.330;2022-07-29T12:13:15;28.70;94.20
17815;DHT22;9031;50.974;11.330;2022-07-29T12:15:42;29.00;94.10
17815;DHT22;9031;50.974;11.330;2022-07-29T12:18:19;29.00;94.00
17815;DHT22;9031;50.974;11.330;2022-07-29T12:20:46;29.20;94.20
17815;DHT22;9031;50.974;11.330;2022-07-29T12:23:13;29.20;94.20
17815;DHT22;9031;50.974;11.330;2022-07-29T12:25:41;29.00;94.10
17815;DHT22;9031;50.974;11.330;2022-07-29T12:28:12;28.70;94.20
17815;DHT22;9031;50.974;11.330;2022-07-29T12:30:44;28.50;94.40
17815;DHT22;9031;50.974;11.330;2022-07-29T12:33:14;28.30;94.70
17815;DHT22;9031;50.974;11.330;2022-07-29T12:35:42;28.20;95.00
17815;DHT22;9031;50.974;11.330;2022-07-29T12:38:10;28.10;95.10
17815;DHT22;9031;50.974;11.330;2022-07-29T12:40:36;28.00;95.00
17815;DHT22;9031;50.974;11.330;2022-07-29T12:43:16;28.00;95.50
17815;DHT22;9031;50.974;11.330;2022-07-29T12:45:45;28.00;95.30
17815;DHT22;9031;50.974;11.330;2022-07-29T12:48:11;27.90;95.80
17815;DHT22;9031;50.974;11.330;2022-07-29T12:50:52;28.00;95.30
17815;DHT22;9031;50.974;11.330;2022-07-29T12:53:18;28.00;95.30
17815;DHT22;9031;50.974;11.330;2022-07-29T12:55:47;28.00;95.10
17815;DHT22;9031;50.974;11.330;2022-07-29T12:58:27;28.20;94.80
17815;DHT22;9031;50.974;11.330;2022-07-29T13:01:04;28.40;95.10
17815;DHT22;9031;50.974;11.330;2022-07-29T13:06:45;28.50;95.30
17815;DHT22;9031;50.974;11.330;2022-07-29T13:09:18;28.40;95.00
17815;DHT22;9031;50.974;11.330;2022-07-29T13:11:46;28.30;95.10
17815;DHT22;9031;50.974;11.330;2022-07-29T13:22:10;28.30;94.90
17815;DHT22;9031;50.974;11.330;2022-07-29T13:27:25;28.20;95.40
17815;DHT22;9031;50.974;11.330;2022-07-29T13:29:51;28.20;94.80
17815;DHT22;9031;50.974;11.330;2022-07-29T13:32:18;28.20;95.40
17815;DHT22;9031;50.974;11.330;2022-07-29T13:34:44;28.20;95.10
17815;DHT22;9031;50.974;11.330;2022-07-29T13:37:10;28.50;95.10
17815;DHT22;9031;50.974;11.330;2022-07-29T13:39:35;28.70;94.80
17815;DHT22;9031;50.974;11.330;2022-07-29T13:42:02;28.80;95.30
17815;DHT22;9031;50.974;11.330;2022-07-29T13:44:29;28.90;94.80
17815;DHT22;9031;50.974;11.330;2022-07-29T13:46:54;29.00;94.60
17815;DHT22;9031;50.974;11.330;2022-07-29T13:49:21;29.10;94.40
17815;DHT22;9031;50.974;11.330;2022-07-29T13:51:46;29.30;94.50
17815;DHT22;9031;50.974;11.330;2022-07-29T13:54:12;29.70;94.00
17815;DHT22;9031;50.974;11.330;2022-07-29T13:56:37;30.90;93.50
17815;DHT22;9031;50.974;11.330;2022-07-29T13:59:03;32.90;92.00
17815;DHT22;9031;50.974;11.330;2022-07-29T14:01:28;35.00;90.20
17815;DHT22;9031;50.974;11.330;2022-07-29T14:03:55;36.80;86.70
17815;DHT22;9031;50.974;11.330;2022-07-29T14:06:21;37.00;84.60
17815;DHT22;9031;50.974;11.330;2022-07-29T14:08:46;35.90;84.70
17815;DHT22;9031;50.974;11.330;2022-07-29T14:11:12;35.10;86.60
17815;DHT22;9031;50.974;11.330;2022-07-29T14:13:37;34.30;87.30
17815;DHT22;9031;50.974;11.330;2022-07-29T14:16:03;33.20;88.60
17815;DHT22;9031;50.974;11.330;2022-07-29T14:18:28;32.40;89.90
17815;DHT22;9031;50.974;11.330;2022-07-29T14:20:54;31.70;90.80
17815;DHT22;9031;50.974;11.330;2022-07-29T14:23:19;31.30;91.00
17815;DHT22;9031;50.974;11.330;2022-07-29T14:25:45;31.30;91.50
17815;DHT22;9031;50.974;11.330;2022-07-29T14:28:11;32.60;90.40
17815;DHT22;9031;50.974;11.330;2022-07-29T14:30:36;33.50;90.10
17815;DHT22;9031;50.974;11.330;2022-07-29T14:33:02;34.50;87.20
17815;DHT22;9031;50.974;11.330;2022-07-29T14:35:28;34.40;86.80
17815;DHT22;9031;50.974;11.330;2022-07-29T14:37:53;34.30;87.30
17815;DHT22;9031;50.974;11.330;2022-07-29T14:40:19;34.80;87.10
17815;DHT22;9031;50.974;11.330;2022-07-29T14:42:45;35.80;85.40
17815;DHT22;9031;50.974;11.330;2022-07-29T14:45:10;35.90;84.40
17815;DHT22;9031;50.974;11.330;2022-07-29T14:47:37;35.40;85.50
17815;DHT22;9031;50.974;11.330;2022-07-29T14:50:03;34.80;85.60
17815;DHT22;9031;50.974;11.330;2022-07-29T14:52:29;34.40;85.80
17815;DHT22;9031;50.974;11.330;2022-07-29T14:54:55;33.30;88.20
17815;DHT22;9031;50.974;11.330;2022-07-29T14:57:20;32.90;89.20
17815;DHT22;9031;50.974;11.330;2022-07-29T14:59:46;33.00;89.20
17815;DHT22;9031;50.974;11.330;2022-07-29T15:02:11;34.00;88.70
17815;DHT22;9031;50.974;11.330;2022-07-29T15:04:37;35.70;85.70
17815;DHT22;9031;50.974;11.330;2022-07-29T15:07:03;36.30;85.90
17815;DHT22;9031;50.974;11.330;2022-07-29T15:09:28;36.20;85.80
17815;DHT22;9031;50.974;11.330;2022-07-29T15:11:54;34.60;88.40
17815;DHT22;9031;50.974;11.330;2022-07-29T15:14:19;33.10;90.20
17815;DHT22;9031;50.974;11.330;2022-07-29T15:16:45;32.00;91.50
17815;DHT22;9031;50.974;11.330;2022-07-29T15:19:10;30.30;93.60
17815;DHT22;9031;50.974;11.330;2022-07-29T15:21:36;30.00;94.00
17815;DHT22;9031;50.974;11.330;2022-07-29T15:24:02;31.20;93.30
17815;DHT22;9031;50.974;11.330;2022-07-29T15:26:28;32.40;92.70
17815;DHT22;9031;50.974;11.330;2022-07-29T15:28:53;34.30;91.30
17815;DHT22;9031;50.974;11.330;2022-07-29T15:31:20;34.70;90.60
17815;DHT22;9031;50.974;11.330;2022-07-29T15:33:46;33.40;91.60
17815;DHT22;9031;50.974;11.330;2022-07-29T15:36:11;32.10;93.10
17815;DHT22;9031;50.974;11.330;2022-07-29T15:38:38;32.10;93.30
17815;DHT22;9031;50.974;11.330;2022-07-29T15:41:06;31.60;93.00
17815;DHT22;9031;50.974;11.330;2022-07-29T15:43:31;30.90;93.80
17815;DHT22;9031;50.974;11.330;2022-07-29T15:45:57;30.20;94.60
17815;DHT22;9031;50.974;11.330;2022-07-29T15:48:41;29.60;95.60
17815;DHT22;9031;50.974;11.330;2022-07-29T15:51:07;28.90;96.10
17815;DHT22;9031;50.974;11.330;2022-07-29T15:53:32;28.50;96.60
17815;DHT22;9031;50.974;11.330;2022-07-29T15:55:58;28.60;96.40
17815;DHT22;9031;50.974;11.330;2022-07-29T15:58:23;28.30;96.60
17815;DHT22;9031;50.974;11.330;2022-07-29T16:00:49;28.30;97.10
17815;DHT22;9031;50.974;11.330;2022-07-29T16:03:14;28.30;96.30
17815;DHT22;9031;50.974;11.330;2022-07-29T16:05:40;28.50;96.30
17815;DHT22;9031;50.974;11.330;2022-07-29T16:08:06;28.40;96.60
17815;DHT22;9031;50.974;11.330;2022-07-29T16:10:32;28.20;96.60
17815;DHT22;9031;50.974;11.330;2022-07-29T16:12:58;28.00;96.70
17815;DHT22;9031;50.974;11.330;2022-07-29T16:15:24;28.00;96.80
17815;DHT22;9031;50.974;11.330;2022-07-29T16:17:49;28.00;96.80
17815;DHT22;9031;50.974;11.330;2022-07-29T16:20:15;27.80;97.60
17815;DHT22;9031;50.974;11.330;2022-07-29T16:22:41;27.70;97.60
17815;DHT22;9031;50.974;11.330;2022-07-29T16:25:07;27.40;97.80
17815;DHT22;9031;50.974;11.330;2022-07-29T16:27:33;27.20;98.00